<?xml version='1.0' encoding='UTF-8'?>
<gpx xmlns="http://www.topografix.com/GPX/1/1" creator="www.balnam.be" version="1.1" xmlns:xsi="http://www.w3.org/2001/XMLSchema-instance" xsi:schemaLocation="http://www.topografix.com/GPX/1/1 http://www.topografix.com/GPX/1/1/gpx.xsd">
<trk>
<name>ljasa9</name>
<cmt>q</cmt>
<desc>Sart Chemin n°9 </desc>
<link href="https://chemins.be/sart/chemin/9"/><trkseg>
<trkpt lat="50.508117" lon="5.904347"><time>2026-05-02T19:09:06Z</time></trkpt>
<trkpt lat="50.506970" lon="5.904990"><time>2026-05-02T19:19:06Z</time></trkpt>
<trkpt lat="50.505187" lon="5.903388"><time>2026-05-02T19:29:06Z</time></trkpt>
</trkseg></trk>
<trk>
<name>ljasa9</name>
<cmt>v</cmt>
<desc>Sart Chemin n°9 </desc>
<link href="https://chemins.be/sart/chemin/9"/><trkseg>
<trkpt lat="50.505187" lon="5.903388"><time>2026-05-02T19:29:06Z</time></trkpt>
<trkpt lat="50.504230" lon="5.904217"><time>2026-05-02T19:39:06Z</time></trkpt>
<trkpt lat="50.502872" lon="5.903716"><time>2026-05-02T19:49:06Z</time></trkpt>
<trkpt lat="50.502060" lon="5.903755"><time>2026-05-02T19:59:06Z</time></trkpt>
</trkseg></trk>
<trk>
<name>ljasa9</name>
<cmt>r</cmt>
<desc>Sart Chemin n°9 </desc>
<link href="https://chemins.be/sart/chemin/9"/><trkseg>
<trkpt lat="50.502060" lon="5.903755"><time>2026-05-02T19:59:06Z</time></trkpt>
<trkpt lat="50.499094" lon="5.903383"><time>2026-05-02T20:09:06Z</time></trkpt>
<trkpt lat="50.498317" lon="5.903918"><time>2026-05-02T20:19:06Z</time></trkpt>
<trkpt lat="50.497107" lon="5.903445"><time>2026-05-02T20:29:06Z</time></trkpt>
<trkpt lat="50.495678" lon="5.907680"><time>2026-05-02T20:39:06Z</time></trkpt>
<trkpt lat="50.494285" lon="5.909005"><time>2026-05-02T20:49:06Z</time></trkpt>
<trkpt lat="50.493243" lon="5.909062"><time>2026-05-02T20:59:06Z</time></trkpt>
</trkseg></trk>
<trk>
<name>ljasa9</name>
<cmt>s</cmt>
<desc>Sart Chemin n°9 </desc>
<link href="https://chemins.be/sart/chemin/9"/><trkseg>
<trkpt lat="50.493243" lon="5.909062"><time>2026-05-02T20:59:06Z</time></trkpt>
<trkpt lat="50.492794" lon="5.910446"><time>2026-05-02T21:09:06Z</time></trkpt>
<trkpt lat="50.491074" lon="5.912763"><time>2026-05-02T21:19:06Z</time></trkpt>
</trkseg></trk>
<trk>
<name>ljasa9</name>
<cmt>v</cmt>
<desc>Sart Chemin n°9 </desc>
<link href="https://chemins.be/sart/chemin/9"/><trkseg>
<trkpt lat="50.491074" lon="5.912763"><time>2026-05-02T21:19:06Z</time></trkpt>
<trkpt lat="50.489623" lon="5.913729"><time>2026-05-02T21:29:06Z</time></trkpt>
</trkseg></trk>
<trk>
<name>ljasa9</name>
<cmt>q</cmt>
<desc>Sart Chemin n°9 </desc>
<link href="https://chemins.be/sart/chemin/9"/><trkseg>
<trkpt lat="50.489623" lon="5.913729"><time>2026-05-02T21:29:06Z</time></trkpt>
<trkpt lat="50.486942" lon="5.917425"><time>2026-05-02T21:39:06Z</time></trkpt>
<trkpt lat="50.485281" lon="5.918065"><time>2026-05-02T21:49:06Z</time></trkpt>
<trkpt lat="50.483729" lon="5.918269"><time>2026-05-02T21:59:06Z</time></trkpt>
</trkseg></trk>
<trk>
<name>ljasa9</name>
<cmt>v</cmt>
<desc>Sart Chemin n°9 </desc>
<link href="https://chemins.be/sart/chemin/9"/><trkseg>
<trkpt lat="50.483729" lon="5.918269"><time>2026-05-02T21:59:06Z</time></trkpt>
<trkpt lat="50.482627" lon="5.918083"><time>2026-05-02T22:09:06Z</time></trkpt>
<trkpt lat="50.478850" lon="5.919346"><time>2026-05-02T22:19:06Z</time></trkpt>
</trkseg></trk>
<trk>
<name>ljasa9</name>
<cmt>d</cmt>
<desc>Sart Chemin n°9 </desc>
<link href="https://chemins.be/sart/chemin/9"/><trkseg>
<trkpt lat="50.478850" lon="5.919346"><time>2026-05-02T22:19:06Z</time></trkpt>
<trkpt lat="50.475172" lon="5.920575"><time>2026-05-02T22:29:06Z</time></trkpt>
<trkpt lat="50.473406" lon="5.920401"><time>2026-05-02T22:39:06Z</time></trkpt>
<trkpt lat="50.471912" lon="5.921030"><time>2026-05-02T22:49:06Z</time></trkpt>
<trkpt lat="50.471712" lon="5.921373"><time>2026-05-02T22:59:06Z</time></trkpt>
<trkpt lat="50.469454" lon="5.922017"><time>2026-05-02T23:09:06Z</time></trkpt>
</trkseg></trk>
<trk>
<name>ljasa9</name>
<cmt>q</cmt>
<desc>Sart Chemin n°9 </desc>
<link href="https://chemins.be/sart/chemin/9"/><trkseg>
<trkpt lat="50.469454" lon="5.922017"><time>2026-05-02T23:09:06Z</time></trkpt>
<trkpt lat="50.466486" lon="5.923061"><time>2026-05-02T23:19:06Z</time></trkpt>
</trkseg></trk>
<trk>
<name>ljasa9</name>
<cmt>v</cmt>
<desc>Sart Chemin n°9 </desc>
<link href="https://chemins.be/sart/chemin/9"/><trkseg>
<trkpt lat="50.466486" lon="5.923061"><time>2026-05-02T23:19:06Z</time></trkpt>
<trkpt lat="50.464792" lon="5.923405"><time>2026-05-02T23:29:06Z</time></trkpt>
<trkpt lat="50.463745" lon="5.924177"><time>2026-05-02T23:39:06Z</time></trkpt>
</trkseg>
</trk>
</gpx>